Terminal Aerodrome Forecast
Issued by NWS

Home | Current Version | Previous Version | Text Only | Print | Product List | Glossary On
Versions: 1 2 3 4 5 6 7 8 9 10 11 12 13 14 15 16 17 18 19 20 21 22 23 24 25 26 27 28 29 30 31 32
000
FTUS43 KDLH 301700 AAA
TAFHYR
TAF AMD
KHYR 301749Z 3018/0118 12009KT P6SM FEW015
     FM010700 16005KT P6SM OVC050
     FM010900 15005KT P6SM VCSH OVC015
     FM011200 15006KT 4SM -RA BR OVC010=

USA.gov is the U.S. government's official web portal to all federal, state and local government web resources and services.